createdAt,value
2023-01-06T00:00:22.013Z,44.50
2023-01-06T00:02:49.733Z,44.50
2023-01-06T00:05:17.489Z,44.50
2023-01-06T00:07:45.274Z,44.50
2023-01-06T00:10:13.190Z,44.50
2023-01-06T00:12:40.901Z,44.50
2023-01-06T00:15:08.678Z,44.50
2023-01-06T00:17:36.402Z,44.60
2023-01-06T00:20:04.131Z,44.50
2023-01-06T00:22:31.929Z,44.60
2023-01-06T00:24:59.822Z,44.60
2023-01-06T00:27:27.536Z,44.60
2023-01-06T00:29:55.266Z,44.60
2023-01-06T00:32:23.010Z,44.60
2023-01-06T00:34:50.775Z,44.70
2023-01-06T00:37:18.514Z,44.70
2023-01-06T00:39:46.263Z,44.80
2023-01-06T00:42:14.073Z,44.70
2023-01-06T00:44:41.883Z,44.80
2023-01-06T00:47:09.620Z,44.90
2023-01-06T00:49:37.421Z,44.80
2023-01-06T00:52:05.314Z,44.80
2023-01-06T00:54:33.202Z,44.80
2023-01-06T00:57:00.964Z,44.90
2023-01-06T00:59:28.732Z,44.80
2023-01-06T01:01:56.803Z,44.90
2023-01-06T01:04:24.638Z,44.80
2023-01-06T01:06:52.578Z,44.80
2023-01-06T01:09:21.762Z,44.90
2023-01-06T01:12:07.124Z,44.80
2023-01-06T01:14:34.920Z,44.90
2023-01-06T01:17:02.750Z,44.90
2023-01-06T01:19:30.536Z,44.90
2023-01-06T01:21:58.286Z,44.90
2023-01-06T01:24:26.037Z,44.90
2023-01-06T01:26:53.826Z,45.00
2023-01-06T01:29:21.523Z,44.90
2023-01-06T01:31:49.239Z,44.80
2023-01-06T01:34:17.059Z,44.90
2023-01-06T01:36:44.800Z,44.80
2023-01-06T01:39:12.566Z,44.90
2023-01-06T01:41:40.329Z,44.90
2023-01-06T01:44:08.053Z,45.00
2023-01-06T01:46:35.794Z,45.00
2023-01-06T01:49:03.603Z,44.90
2023-01-06T01:51:31.342Z,44.80
2023-01-06T01:53:59.220Z,44.90
2023-01-06T01:56:26.977Z,45.00
2023-01-06T01:58:54.725Z,45.00
2023-01-06T02:07:58.004Z,45.10
2023-01-06T02:10:27.143Z,45.10
2023-01-06T02:12:56.271Z,45.20
2023-01-06T02:21:14.365Z,45.20
2023-01-06T02:23:44.109Z,45.20
2023-01-06T02:26:12.089Z,45.20
2023-01-06T02:28:40.007Z,45.20
2023-01-06T02:37:37.036Z,45.20
2023-01-06T02:40:04.933Z,45.30
2023-01-06T02:42:32.820Z,45.20
2023-01-06T02:45:00.655Z,45.20
2023-01-06T02:47:28.445Z,45.30
2023-01-06T02:49:56.405Z,45.30
2023-01-06T02:52:24.120Z,45.20
2023-01-06T02:54:51.872Z,45.20
2023-01-06T02:57:19.877Z,45.20
2023-01-06T02:59:47.722Z,45.30
2023-01-06T03:02:15.526Z,45.20
2023-01-06T03:04:43.495Z,45.30
2023-01-06T03:07:11.426Z,45.20
2023-01-06T03:09:39.748Z,45.30
2023-01-06T03:12:07.862Z,45.20
2023-01-06T03:14:36.078Z,45.30
2023-01-06T03:17:04.012Z,45.30
2023-01-06T03:19:31.817Z,45.30
2023-01-06T03:21:59.593Z,45.30
2023-01-06T03:24:27.520Z,45.30
2023-01-06T03:26:55.478Z,45.30
2023-01-06T03:29:23.255Z,45.30
2023-01-06T03:31:51.016Z,45.20
2023-01-06T03:34:18.976Z,45.30
2023-01-06T03:36:46.761Z,45.30
2023-01-06T03:39:14.628Z,45.30
2023-01-06T03:42:00.095Z,45.20
2023-01-06T03:44:27.851Z,45.30
2023-01-06T03:46:55.677Z,45.20
2023-01-06T03:49:23.522Z,45.20
2023-01-06T03:51:51.254Z,45.30
2023-01-06T03:54:19.157Z,45.30
2023-01-06T03:56:46.955Z,45.20
2023-01-06T03:59:14.692Z,45.20
2023-01-06T04:01:43.519Z,45.30
2023-01-06T04:04:11.398Z,45.20
2023-01-06T04:06:39.221Z,45.20
2023-01-06T04:09:06.936Z,45.20
2023-01-06T04:11:52.277Z,45.20
2023-01-06T04:14:20.020Z,45.20
2023-01-06T04:16:47.740Z,45.20
2023-01-06T04:19:15.463Z,45.30
2023-01-06T04:21:43.194Z,45.30
2023-01-06T04:24:10.931Z,45.30
2023-01-06T04:26:38.669Z,45.50
2023-01-06T04:29:06.461Z,45.30
2023-01-06T04:31:35.619Z,45.40
2023-01-06T04:34:03.708Z,45.40
2023-01-06T04:36:31.456Z,45.50
2023-01-06T04:38:59.255Z,45.30
2023-01-06T04:41:27.001Z,45.30
2023-01-06T04:43:57.159Z,45.30
2023-01-06T04:46:25.648Z,45.40
2023-01-06T04:48:53.366Z,45.30
2023-01-06T04:51:21.094Z,45.40
2023-01-06T04:53:48.891Z,45.40
2023-01-06T04:56:16.606Z,45.30
2023-01-06T04:58:44.325Z,45.30
2023-01-06T05:01:12.047Z,45.40
2023-01-06T05:03:39.867Z,45.40
2023-01-06T05:06:09.793Z,45.40
2023-01-06T05:08:37.565Z,45.30
2023-01-06T05:11:05.319Z,45.40
2023-01-06T05:13:33.073Z,45.40
2023-01-06T05:16:00.936Z,45.40
2023-01-06T05:18:28.655Z,45.50
2023-01-06T05:20:56.382Z,45.60
2023-01-06T05:23:24.116Z,45.70
2023-01-06T05:25:51.879Z,45.80
2023-01-06T05:28:19.616Z,46.00
2023-01-06T05:30:47.321Z,46.00
2023-01-06T05:33:15.225Z,46.10
2023-01-06T05:35:42.959Z,46.20
2023-01-06T05:38:10.706Z,46.20
2023-01-06T05:40:38.443Z,46.20
2023-01-06T05:45:34.054Z,46.20
2023-01-06T05:48:02.760Z,46.20
2023-01-06T05:50:30.451Z,46.20
2023-01-06T05:52:59.911Z,46.30
2023-01-06T05:55:27.804Z,46.10
2023-01-06T05:57:55.543Z,46.20
2023-01-06T06:00:23.202Z,46.20
2023-01-06T06:02:50.906Z,46.10
2023-01-06T06:05:18.642Z,46.10
2023-01-06T06:07:46.413Z,46.00
2023-01-06T06:10:14.183Z,46.10
2023-01-06T06:12:41.932Z,46.00
2023-01-06T06:15:09.640Z,46.00
2023-01-06T06:17:37.347Z,46.00
2023-01-06T06:20:05.077Z,46.00
2023-01-06T06:22:32.844Z,46.00
2023-01-06T06:25:00.583Z,45.90
2023-01-06T06:27:28.302Z,45.90
2023-01-06T06:29:56.034Z,45.90
2023-01-06T06:32:23.805Z,45.90
2023-01-06T06:34:51.510Z,45.90
2023-01-06T06:37:19.235Z,46.00
2023-01-06T06:39:47.036Z,45.90
2023-01-06T06:42:14.771Z,45.90
2023-01-06T06:44:42.547Z,45.80
2023-01-06T06:47:10.362Z,46.00
2023-01-06T06:49:38.172Z,46.00
2023-01-06T06:52:05.950Z,45.90
2023-01-06T06:54:33.728Z,46.00
2023-01-06T06:57:01.444Z,45.90
2023-01-06T06:59:29.251Z,46.00
2023-01-06T07:01:57.146Z,46.00
2023-01-06T07:04:25.072Z,46.00
2023-01-06T07:06:53.239Z,46.00
2023-01-06T07:09:20.988Z,46.00
2023-01-06T07:11:48.745Z,46.00
2023-01-06T07:14:16.527Z,46.00
2023-01-06T07:16:44.292Z,46.00
2023-01-06T07:19:12.118Z,46.00
2023-01-06T07:21:39.894Z,46.10
2023-01-06T07:24:07.719Z,46.00
2023-01-06T07:26:35.539Z,46.10
2023-01-06T07:29:03.276Z,46.00
2023-01-06T07:31:31.166Z,46.00
2023-01-06T07:33:58.964Z,46.10
2023-01-06T07:36:26.718Z,46.00
2023-01-06T07:38:55.972Z,46.00
2023-01-06T07:41:23.775Z,46.00
2023-01-06T07:43:51.510Z,46.00
2023-01-06T07:46:19.302Z,46.00
2023-01-06T07:48:47.094Z,46.00
2023-01-06T07:51:14.990Z,45.90
2023-01-06T07:53:42.771Z,45.90
2023-01-06T07:56:10.519Z,45.80
2023-01-06T07:58:38.310Z,45.90
2023-01-06T08:01:06.144Z,45.80
2023-01-06T08:03:33.975Z,45.80
2023-01-06T08:06:01.779Z,45.90
2023-01-06T08:08:29.553Z,45.80
2023-01-06T08:10:57.288Z,45.90
2023-01-06T08:13:25.135Z,45.90
2023-01-06T08:15:52.931Z,46.00
2023-01-06T08:18:20.813Z,45.90
2023-01-06T08:20:48.659Z,45.90
2023-01-06T08:23:16.437Z,45.90
2023-01-06T08:25:44.158Z,45.90
2023-01-06T08:28:12.015Z,46.00
2023-01-06T08:30:41.887Z,45.90
2023-01-06T08:33:09.630Z,46.00
2023-01-06T08:35:37.450Z,45.90
2023-01-06T08:38:05.328Z,45.90
2023-01-06T08:40:33.122Z,45.90
2023-01-06T08:43:00.914Z,46.00
2023-01-06T08:45:28.734Z,46.00
2023-01-06T08:47:56.542Z,46.00
2023-01-06T08:50:25.896Z,46.00
2023-01-06T08:52:54.402Z,46.00
2023-01-06T08:55:22.195Z,46.00
2023-01-06T08:57:49.997Z,45.90
2023-01-06T09:00:17.826Z,46.00
2023-01-06T09:02:45.605Z,46.00
2023-01-06T09:05:13.419Z,46.00
2023-01-06T09:07:41.229Z,46.00
2023-01-06T09:10:08.984Z,46.00
2023-01-06T09:12:36.737Z,46.00
2023-01-06T09:15:04.583Z,46.00
2023-01-06T09:17:32.326Z,46.00
2023-01-06T09:20:00.091Z,46.00
2023-01-06T09:22:27.961Z,46.00
2023-01-06T09:24:55.820Z,46.00
2023-01-06T09:27:23.569Z,46.00
2023-01-06T09:29:51.318Z,46.00
2023-01-06T09:32:19.076Z,46.00
2023-01-06T09:34:46.830Z,46.00
2023-01-06T09:37:14.562Z,45.90
2023-01-06T09:39:42.386Z,45.90
2023-01-06T09:42:10.161Z,45.90
2023-01-06T09:44:37.927Z,45.90
2023-01-06T09:47:05.734Z,46.00
2023-01-06T09:49:33.530Z,45.80
2023-01-06T09:52:01.503Z,44.70
2023-01-06T09:54:29.293Z,43.60
2023-01-06T09:56:57.099Z,42.80
2023-01-06T09:59:24.954Z,42.10
2023-01-06T10:01:55.146Z,41.70
2023-01-06T10:04:22.973Z,41.50
2023-01-06T10:06:50.705Z,41.30
2023-01-06T10:09:18.503Z,41.50
2023-01-06T10:11:46.320Z,41.50
2023-01-06T10:14:14.102Z,41.60
2023-01-06T10:16:42.121Z,41.70
2023-01-06T10:19:10.053Z,41.90
2023-01-06T10:21:37.855Z,42.10
2023-01-06T10:24:05.718Z,42.20
2023-01-06T10:26:33.473Z,42.40
2023-01-06T10:29:01.317Z,42.70
2023-01-06T10:31:29.128Z,42.80
2023-01-06T10:33:56.988Z,42.90
2023-01-06T10:36:26.552Z,43.10
2023-01-06T10:38:56.690Z,43.20
2023-01-06T10:41:24.555Z,43.50
2023-01-06T10:43:52.313Z,43.50
2023-01-06T10:46:20.150Z,43.70
2023-01-06T10:48:49.386Z,43.80
2023-01-06T10:51:17.116Z,43.90
2023-01-06T10:53:46.997Z,44.10
2023-01-06T10:56:14.753Z,44.10
2023-01-06T10:58:42.496Z,44.20
2023-01-06T11:01:10.468Z,44.30
2023-01-06T11:03:38.470Z,44.40
2023-01-06T11:06:06.264Z,44.40
2023-01-06T11:08:34.038Z,44.60
2023-01-06T11:11:01.812Z,44.60
2023-01-06T11:13:29.602Z,44.70
2023-01-06T11:15:57.438Z,44.80
2023-01-06T11:18:25.273Z,44.90
2023-01-06T11:20:53.140Z,44.90
2023-01-06T11:23:20.919Z,44.90
2023-01-06T11:25:48.712Z,45.00
2023-01-06T11:28:16.513Z,45.00
2023-01-06T11:30:44.314Z,45.10
2023-01-06T11:33:12.063Z,45.10
2023-01-06T11:35:39.839Z,45.10
2023-01-06T11:38:07.659Z,45.20
2023-01-06T11:40:35.479Z,45.10
2023-01-06T11:43:03.231Z,45.30
2023-01-06T11:45:31.103Z,45.20
2023-01-06T11:47:58.939Z,45.30
2023-01-06T11:50:26.809Z,45.30
2023-01-06T11:52:54.650Z,45.30
2023-01-06T11:55:22.414Z,45.30
2023-01-06T11:57:50.237Z,45.30
2023-01-06T12:00:19.137Z,45.30
2023-01-06T12:02:46.999Z,45.40
2023-01-06T12:05:14.745Z,45.40
2023-01-06T12:07:42.505Z,45.40
2023-01-06T12:10:10.779Z,45.50
2023-01-06T12:12:38.522Z,45.40
2023-01-06T12:15:06.257Z,45.50
2023-01-06T12:17:34.110Z,45.40
2023-01-06T12:20:01.955Z,45.50
2023-01-06T12:22:29.768Z,45.50
2023-01-06T12:24:57.582Z,45.60
2023-01-06T12:27:25.394Z,45.60
2023-01-06T12:29:53.161Z,45.60
2023-01-06T12:32:20.886Z,45.60
2023-01-06T12:34:50.081Z,45.60
2023-01-06T12:37:17.914Z,45.50
2023-01-06T12:39:45.969Z,45.60
2023-01-06T12:42:17.078Z,45.60
2023-01-06T12:44:44.804Z,45.70
2023-01-06T12:47:12.514Z,45.70
2023-01-06T12:49:40.274Z,45.60
2023-01-06T12:52:07.993Z,45.70
2023-01-06T12:54:35.713Z,45.70
2023-01-06T12:57:03.457Z,45.60
2023-01-06T12:59:31.302Z,45.60
2023-01-06T13:01:59.226Z,45.60
2023-01-06T13:04:27.103Z,45.70
2023-01-06T13:06:54.898Z,45.70
2023-01-06T13:09:23.064Z,45.70
2023-01-06T13:11:50.879Z,45.70
2023-01-06T13:14:25.068Z,45.70
2023-01-06T13:16:52.898Z,45.60
2023-01-06T13:19:20.725Z,45.80
2023-01-06T13:21:48.487Z,45.80
2023-01-06T13:24:16.262Z,45.70
2023-01-06T13:26:44.012Z,45.80
2023-01-06T13:29:11.898Z,45.80
2023-01-06T13:31:41.178Z,45.80
2023-01-06T13:34:09.015Z,45.90
2023-01-06T13:36:36.874Z,45.90
2023-01-06T13:39:04.698Z,45.90
2023-01-06T13:41:33.470Z,45.90
2023-01-06T13:44:01.232Z,46.00
2023-01-06T13:46:29.170Z,45.90
2023-01-06T13:48:56.993Z,45.90
2023-01-06T13:51:24.776Z,46.00
2023-01-06T13:53:54.753Z,45.90
2023-01-06T13:56:22.562Z,45.90
2023-01-06T13:58:50.349Z,45.90
2023-01-06T14:01:18.278Z,45.90
2023-01-06T14:03:46.096Z,46.00
2023-01-06T14:06:13.963Z,46.00
2023-01-06T14:08:42.012Z,45.90
2023-01-06T14:11:09.737Z,45.90
2023-01-06T14:13:37.610Z,45.90
2023-01-06T14:16:05.596Z,46.00
2023-01-06T14:18:33.415Z,45.90
2023-01-06T14:21:01.493Z,46.00
2023-01-06T14:23:29.352Z,45.90
2023-01-06T14:25:57.164Z,45.90
2023-01-06T14:28:24.938Z,45.90
2023-01-06T14:30:52.937Z,45.90
2023-01-06T14:33:20.784Z,45.90
2023-01-06T14:35:48.695Z,45.90
2023-01-06T14:38:16.446Z,46.00
2023-01-06T14:40:44.359Z,46.20
2023-01-06T14:43:12.080Z,46.20
2023-01-06T14:45:39.820Z,46.30
2023-01-06T14:48:07.562Z,46.30
2023-01-06T14:50:46.450Z,46.50
2023-01-06T14:53:14.571Z,46.40
2023-01-06T14:55:42.631Z,46.50
2023-01-06T14:58:10.393Z,46.50
2023-01-06T15:00:38.076Z,46.40
2023-01-06T15:03:06.270Z,46.40
2023-01-06T15:05:33.986Z,46.20
2023-01-06T15:08:01.661Z,46.00
2023-01-06T15:10:29.377Z,45.70
2023-01-06T15:12:57.646Z,45.30
2023-01-06T15:15:25.481Z,45.10
2023-01-06T15:17:53.202Z,44.90
2023-01-06T15:20:20.961Z,44.50
2023-01-06T15:22:49.138Z,44.40
2023-01-06T15:25:16.885Z,44.30
2023-01-06T15:27:44.625Z,44.00
2023-01-06T15:30:12.531Z,44.00
2023-01-06T15:32:41.342Z,44.60
2023-01-06T15:35:09.093Z,41.00
2023-01-06T15:37:36.927Z,35.40
2023-01-06T15:40:04.675Z,30.60
2023-01-06T15:42:32.446Z,28.00
2023-01-06T15:45:00.474Z,26.20
2023-01-06T15:47:28.227Z,25.00
2023-01-06T15:49:56.710Z,24.00
2023-01-06T15:52:24.527Z,23.40
2023-01-06T15:54:52.257Z,22.80
2023-01-06T15:57:19.980Z,22.40
2023-01-06T15:59:47.741Z,22.10
2023-01-06T16:02:15.555Z,22.00
2023-01-06T16:04:43.396Z,21.90
2023-01-06T16:07:11.137Z,22.10
2023-01-06T16:09:38.847Z,22.40
2023-01-06T16:12:06.713Z,22.90
2023-01-06T16:14:35.667Z,23.60
2023-01-06T16:17:03.391Z,24.20
2023-01-06T16:19:31.121Z,24.70
2023-01-06T16:21:58.831Z,25.30
2023-01-06T16:24:27.379Z,26.00
2023-01-06T16:26:55.151Z,26.60
2023-01-06T16:29:22.844Z,27.30
2023-01-06T16:31:50.587Z,27.90
2023-01-06T16:34:18.279Z,28.60
2023-01-06T16:36:46.020Z,29.10
2023-01-06T16:39:13.731Z,29.70
2023-01-06T16:41:41.503Z,30.30
2023-01-06T16:44:09.239Z,30.90
2023-01-06T16:46:37.034Z,31.50
2023-01-06T16:49:04.820Z,32.20
2023-01-06T16:51:32.515Z,32.70
2023-01-06T16:54:00.517Z,33.40
2023-01-06T16:56:28.231Z,34.00
2023-01-06T16:58:56.001Z,34.40
2023-01-06T17:01:23.830Z,35.00
2023-01-06T17:03:51.652Z,35.40
2023-01-06T17:06:19.418Z,35.90
2023-01-06T17:08:47.259Z,36.40
2023-01-06T17:11:15.438Z,36.80
2023-01-06T17:13:46.135Z,37.30
2023-01-06T17:16:13.991Z,37.60
2023-01-06T17:18:41.717Z,38.00
2023-01-06T17:21:10.687Z,38.30
2023-01-06T17:23:38.414Z,38.60
2023-01-06T17:26:06.277Z,38.90
2023-01-06T17:28:34.002Z,39.30
2023-01-06T17:31:02.424Z,39.60
2023-01-06T17:33:30.938Z,39.80
2023-01-06T17:35:59.762Z,40.10
2023-01-06T17:38:27.551Z,40.20
2023-01-06T17:40:56.709Z,40.50
2023-01-06T17:43:24.901Z,40.50
2023-01-06T17:45:52.723Z,37.80
2023-01-06T17:48:20.452Z,33.60
2023-01-06T17:50:50.000Z,29.80
2023-01-06T17:53:35.637Z,27.70
2023-01-06T17:56:03.420Z,26.00
2023-01-06T17:58:31.093Z,24.80
2023-01-06T18:00:59.022Z,24.40
2023-01-06T18:03:26.821Z,23.30
2023-01-06T18:05:54.629Z,23.10
2023-01-06T18:08:22.713Z,23.20
2023-01-06T18:10:50.537Z,23.40
2023-01-06T18:13:18.276Z,23.80
2023-01-06T18:15:46.456Z,24.30
2023-01-06T18:18:14.190Z,24.80
2023-01-06T18:20:41.952Z,25.50
2023-01-06T18:23:09.650Z,26.10
2023-01-06T18:25:37.425Z,26.80
2023-01-06T18:28:05.141Z,27.40
2023-01-06T18:30:32.954Z,28.00
2023-01-06T18:33:01.600Z,28.60
2023-01-06T18:35:29.340Z,29.30
2023-01-06T18:37:57.124Z,29.80
2023-01-06T18:40:24.830Z,30.40
2023-01-06T18:42:52.536Z,31.00
2023-01-06T18:45:20.536Z,31.50
2023-01-06T18:47:48.487Z,32.20
2023-01-06T18:50:16.266Z,32.90
2023-01-06T18:52:44.319Z,33.40
2023-01-06T18:55:12.051Z,33.90
2023-01-06T18:57:45.714Z,34.40
2023-01-06T19:00:13.618Z,34.90
2023-01-06T19:02:41.378Z,35.40
2023-01-06T19:05:09.155Z,35.80
2023-01-06T19:07:38.153Z,36.20
2023-01-06T19:10:06.376Z,36.50
2023-01-06T19:12:36.105Z,37.00
2023-01-06T19:15:03.875Z,37.30
2023-01-06T19:17:31.802Z,37.80
2023-01-06T19:19:59.819Z,38.10
2023-01-06T19:22:27.619Z,38.40
2023-01-06T19:24:55.692Z,38.70
2023-01-06T19:27:23.636Z,38.90
2023-01-06T19:29:51.407Z,39.00
2023-01-06T19:32:19.207Z,39.20
2023-01-06T19:34:47.004Z,39.70
2023-01-06T19:37:14.805Z,40.10
2023-01-06T19:39:42.587Z,40.40
2023-01-06T19:42:10.399Z,40.70
2023-01-06T19:44:38.616Z,40.80
2023-01-06T19:47:06.555Z,41.10
2023-01-06T19:49:34.313Z,41.10
2023-01-06T19:52:02.316Z,41.30
2023-01-06T19:54:30.177Z,41.50
2023-01-06T19:56:57.981Z,42.30
2023-01-06T19:59:26.489Z,41.70
2023-01-06T20:01:54.453Z,41.90
2023-01-06T20:04:22.428Z,42.10
2023-01-06T20:06:50.204Z,42.20
2023-01-06T20:09:18.022Z,42.30
2023-01-06T20:11:45.775Z,42.40
2023-01-06T20:14:13.787Z,42.50
2023-01-06T20:16:41.646Z,42.60
2023-01-06T20:19:09.553Z,42.70
2023-01-06T20:21:37.808Z,42.90
2023-01-06T20:24:05.637Z,42.90
2023-01-06T20:26:34.463Z,43.00
2023-01-06T20:29:02.259Z,43.10
2023-01-06T20:31:30.081Z,43.20
2023-01-06T20:33:57.899Z,43.20
2023-01-06T20:36:25.781Z,43.40
2023-01-06T20:38:53.536Z,43.40
2023-01-06T20:41:21.334Z,43.40
2023-01-06T20:43:49.105Z,43.50
2023-01-06T20:46:17.123Z,43.60
2023-01-06T20:48:45.039Z,43.70
2023-01-06T20:51:12.805Z,43.70
2023-01-06T20:53:40.591Z,43.80
2023-01-06T20:56:08.732Z,43.90
2023-01-06T20:58:36.483Z,43.90
2023-01-06T21:01:04.391Z,43.90
2023-01-06T21:03:32.211Z,44.00
2023-01-06T21:06:00.215Z,44.00
2023-01-06T21:08:28.020Z,44.00
2023-01-06T21:10:55.779Z,44.10
2023-01-06T21:13:24.290Z,44.10
2023-01-06T21:15:52.135Z,44.10
2023-01-06T21:18:19.970Z,44.20
2023-01-06T21:20:49.414Z,44.10
2023-01-06T21:23:17.193Z,44.90
2023-01-06T21:25:45.274Z,44.30
2023-01-06T21:28:13.056Z,44.30
2023-01-06T21:30:40.836Z,44.30
2023-01-06T21:33:08.616Z,44.40
2023-01-06T21:35:36.439Z,44.50
2023-01-06T21:38:05.336Z,44.50
2023-01-06T21:40:33.199Z,44.50
2023-01-06T21:43:09.408Z,44.40
2023-01-06T21:45:37.511Z,44.40
2023-01-06T21:48:05.360Z,44.60
2023-01-06T21:50:33.151Z,44.50
2023-01-06T21:53:00.951Z,44.60
2023-01-06T21:55:28.893Z,44.60
2023-01-06T21:57:56.651Z,44.70
2023-01-06T22:00:24.540Z,44.60
2023-01-06T22:02:52.370Z,44.70
2023-01-06T22:05:20.348Z,44.70
2023-01-06T22:07:48.136Z,44.70
2023-01-06T22:10:15.960Z,44.70
2023-01-06T22:12:43.753Z,44.80
2023-01-06T22:15:11.542Z,44.80
2023-01-06T22:17:39.659Z,44.90
2023-01-06T22:20:07.688Z,44.90
2023-01-06T22:22:35.552Z,45.00
2023-01-06T22:25:03.364Z,45.10
2023-01-06T22:27:31.206Z,45.10
2023-01-06T22:29:58.970Z,45.20
2023-01-06T22:32:27.717Z,45.30
2023-01-06T22:34:55.480Z,45.20
2023-01-06T22:37:23.332Z,45.30
2023-01-06T22:39:51.083Z,45.30
2023-01-06T22:42:19.836Z,45.30
2023-01-06T22:44:49.283Z,45.30
2023-01-06T22:47:16.996Z,45.40
2023-01-06T22:49:45.025Z,45.30
2023-01-06T22:52:12.907Z,45.40
2023-01-06T22:54:40.662Z,45.40
2023-01-06T22:57:08.402Z,45.40
2023-01-06T22:59:36.375Z,45.30
2023-01-06T23:02:04.258Z,45.40
2023-01-06T23:04:32.100Z,45.40
2023-01-06T23:06:59.856Z,45.40
2023-01-06T23:09:27.694Z,45.40
2023-01-06T23:11:55.486Z,45.30
2023-01-06T23:14:23.260Z,45.30
2023-01-06T23:16:51.128Z,45.30
2023-01-06T23:19:18.846Z,45.30
2023-01-06T23:21:46.624Z,45.40
2023-01-06T23:24:14.504Z,45.30
2023-01-06T23:26:42.394Z,45.40
2023-01-06T23:29:10.178Z,45.30
2023-01-06T23:31:38.009Z,45.30
2023-01-06T23:34:05.807Z,45.30
2023-01-06T23:36:33.834Z,45.30
2023-01-06T23:39:01.581Z,45.40
2023-01-06T23:41:29.470Z,45.30
2023-01-06T23:43:57.322Z,45.30
2023-01-06T23:46:25.453Z,45.30
2023-01-06T23:48:53.354Z,45.30
2023-01-06T23:51:22.359Z,45.40
2023-01-06T23:53:50.122Z,46.00
2023-01-06T23:56:17.874Z,45.30
2023-01-06T23:58:45.764Z,45.40
